Etihad Airways Virtual Airport Information Service

Abu Dhabi International Airport

ICAO: OMAA Country: United Arab Emirates
Latitude: 24.433 Longitude: 54.6511
Latest Arrival : ETD18 (EGLL-OMAA) Latest Departure : ETD632 (OMAA-HSSS)


WX CaptureLIVE
Data provided by noaa.gov | Recorded at 22:24:58

METAR : OMAA 092200Z 10010KT CAVOK 30/08 Q1007 NOSIG

TAF : OMAA 091700Z 0918/1100 08008KT CAVOK BECMG 1002/1004 16012KT PROB30 TEMPO 1004/1007 4000 DU BECMG 1010/1012 24008KT BECMG 1014/1016 06008KT BECMG 1021/1023 16012KT


Runway Data for OMAA
Data provided by openaviationdata.com

Runway ID Mag Var Hdg Length Elevation Surface ILS Freq ILS Id ILS Slope

Abu Dhabi International Airport, United Arab Emirates
Use only for reference purposes